sensor_id;sensor_type;location;lat;lon;timestamp;pressure;altitude;pressure_sealevel;temperature;humidity
71559;BME280;59382;43.852;25.952;2022-12-05T00:01:22;102607.50;;;6.43;73.92
71559;BME280;59382;43.852;25.952;2022-12-05T00:03:50;102647.47;;;6.65;73.76
71559;BME280;59382;43.852;25.952;2022-12-05T00:06:17;102655.50;;;6.65;73.51
71559;BME280;59382;43.852;25.952;2022-12-05T00:08:43;102650.44;;;6.62;73.96
71559;BME280;59382;43.852;25.952;2022-12-05T00:11:13;102631.50;;;6.54;73.94
71559;BME280;59382;43.852;25.952;2022-12-05T00:13:40;102638.25;;;6.58;74.12
71559;BME280;59382;43.852;25.952;2022-12-05T00:16:11;102635.16;;;6.53;73.94
71559;BME280;59382;43.852;25.952;2022-12-05T00:18:38;102629.50;;;6.46;74.19
71559;BME280;59382;43.852;25.952;2022-12-05T00:21:04;102647.31;;;6.57;74.10
71559;BME280;59382;43.852;25.952;2022-12-05T00:23:30;102640.53;;;6.53;73.74
71559;BME280;59382;43.852;25.952;2022-12-05T00:26:03;102656.50;;;6.54;73.77
71559;BME280;59382;43.852;25.952;2022-12-05T00:28:30;102646.16;;;6.50;74.03
71559;BME280;59382;43.852;25.952;2022-12-05T00:30:55;102640.22;;;6.46;73.92
71559;BME280;59382;43.852;25.952;2022-12-05T00:33:25;102653.78;;;6.45;74.21
71559;BME280;59382;43.852;25.952;2022-12-05T00:35:51;102662.00;;;6.53;73.84
71559;BME280;59382;43.852;25.952;2022-12-05T00:38:22;102677.81;;;6.56;73.89
71559;BME280;59382;43.852;25.952;2022-12-05T00:40:48;102646.72;;;6.44;74.13
71559;BME280;59382;43.852;25.952;2022-12-05T00:43:13;102668.22;;;6.63;74.14
71559;BME280;59382;43.852;25.952;2022-12-05T00:45:41;102665.81;;;6.60;74.16
71559;BME280;59382;43.852;25.952;2022-12-05T00:48:07;102675.25;;;6.64;73.71
71559;BME280;59382;43.852;25.952;2022-12-05T00:50:32;102665.97;;;6.68;73.86
71559;BME280;59382;43.852;25.952;2022-12-05T00:52:58;102675.13;;;6.65;74.13
71559;BME280;59382;43.852;25.952;2022-12-05T00:55:24;102666.81;;;6.59;73.63
71559;BME280;59382;43.852;25.952;2022-12-05T00:57:52;102676.97;;;6.65;74.00
71559;BME280;59382;43.852;25.952;2022-12-05T01:04:02;102665.53;;;6.63;73.63
71559;BME280;59382;43.852;25.952;2022-12-05T01:06:28;102651.25;;;6.53;73.48
71559;BME280;59382;43.852;25.952;2022-12-05T01:08:55;102664.41;;;6.56;73.27
71559;BME280;59382;43.852;25.952;2022-12-05T01:11:22;102663.97;;;6.60;73.63
71559;BME280;59382;43.852;25.952;2022-12-05T01:13:48;102667.75;;;6.58;73.70
71559;BME280;59382;43.852;25.952;2022-12-05T01:16:16;102664.13;;;6.59;73.66
71559;BME280;59382;43.852;25.952;2022-12-05T01:18:42;102652.94;;;6.44;73.63
71559;BME280;59382;43.852;25.952;2022-12-05T01:21:08;102604.88;;;6.22;73.38
71559;BME280;59382;43.852;25.952;2022-12-05T01:23:34;102649.84;;;6.49;73.40
71559;BME280;59382;43.852;25.952;2022-12-05T01:26:04;102633.88;;;6.38;73.36
71559;BME280;59382;43.852;25.952;2022-12-05T01:28:30;102634.59;;;6.40;73.39
71559;BME280;59382;43.852;25.952;2022-12-05T01:30:55;102633.59;;;6.41;73.98
71559;BME280;59382;43.852;25.952;2022-12-05T01:33:21;102632.88;;;6.39;73.72
71559;BME280;59382;43.852;25.952;2022-12-05T01:35:46;102626.09;;;6.35;73.56
71559;BME280;59382;43.852;25.952;2022-12-05T01:38:12;102610.56;;;6.29;74.08
71559;BME280;59382;43.852;25.952;2022-12-05T01:40:38;102621.19;;;6.40;73.72
71559;BME280;59382;43.852;25.952;2022-12-05T01:43:13;102617.06;;;6.26;73.84
71559;BME280;59382;43.852;25.952;2022-12-05T01:45:42;102605.47;;;6.26;74.11
71559;BME280;59382;43.852;25.952;2022-12-05T01:48:13;102608.00;;;6.27;73.75
71559;BME280;59382;43.852;25.952;2022-12-05T01:50:40;102600.84;;;6.28;74.19
71559;BME280;59382;43.852;25.952;2022-12-05T01:53:06;102612.97;;;6.32;74.11
71559;BME280;59382;43.852;25.952;2022-12-05T01:55:33;102613.81;;;6.32;74.14
71559;BME280;59382;43.852;25.952;2022-12-05T01:58:01;102589.09;;;6.19;74.24
71559;BME280;59382;43.852;25.952;2022-12-05T02:00:27;102595.56;;;6.17;73.89
71559;BME280;59382;43.852;25.952;2022-12-05T02:02:59;102605.47;;;6.26;74.24
71559;BME280;59382;43.852;25.952;2022-12-05T02:05:29;102594.44;;;6.19;74.42
71559;BME280;59382;43.852;25.952;2022-12-05T02:08:04;102596.03;;;6.22;74.02
71559;BME280;59382;43.852;25.952;2022-12-05T02:10:34;102616.78;;;6.29;74.17
71559;BME280;59382;43.852;25.952;2022-12-05T02:13:25;102589.63;;;6.13;73.97
71559;BME280;59382;43.852;25.952;2022-12-05T02:19:16;102624.56;;;6.32;73.64
71559;BME280;59382;43.852;25.952;2022-12-05T02:30:40;102611.97;;;6.33;73.77
71559;BME280;59382;43.852;25.952;2022-12-05T02:36:12;102615.66;;;6.32;74.27
71559;BME280;59382;43.852;25.952;2022-12-05T02:46:42;102617.03;;;6.17;74.20
71559;BME280;59382;43.852;25.952;2022-12-05T02:49:15;102607.84;;;6.10;74.55
71559;BME280;59382;43.852;25.952;2022-12-05T02:51:45;102601.75;;;5.98;74.15
71559;BME280;59382;43.852;25.952;2022-12-05T02:54:15;102606.56;;;6.04;74.08
71559;BME280;59382;43.852;25.952;2022-12-05T02:56:46;102590.16;;;5.97;74.27
71559;BME280;59382;43.852;25.952;2022-12-05T02:59:13;102609.09;;;6.06;74.73
71559;BME280;59382;43.852;25.952;2022-12-05T03:01:39;102611.47;;;6.08;74.36
71559;BME280;59382;43.852;25.952;2022-12-05T03:04:06;102620.38;;;6.09;74.37
71559;BME280;59382;43.852;25.952;2022-12-05T03:09:22;102591.44;;;6.03;74.61
71559;BME280;59382;43.852;25.952;2022-12-05T03:11:53;102600.22;;;6.05;74.03
71559;BME280;59382;43.852;25.952;2022-12-05T03:14:23;102601.75;;;6.07;74.51
71559;BME280;59382;43.852;25.952;2022-12-05T03:16:52;102610.94;;;6.15;74.07
71559;BME280;59382;43.852;25.952;2022-12-05T03:19:31;102589.63;;;6.03;73.95
71559;BME280;59382;43.852;25.952;2022-12-05T03:22:14;102607.72;;;6.21;73.99
71559;BME280;59382;43.852;25.952;2022-12-05T03:24:43;102578.63;;;6.07;73.86
71559;BME280;59382;43.852;25.952;2022-12-05T03:32:23;102600.66;;;6.20;73.96
71559;BME280;59382;43.852;25.952;2022-12-05T03:37:47;102606.03;;;6.20;74.22
71559;BME280;59382;43.852;25.952;2022-12-05T03:40:39;102595.84;;;6.14;74.09
71559;BME280;59382;43.852;25.952;2022-12-05T03:43:08;102595.56;;;6.17;73.82
71559;BME280;59382;43.852;25.952;2022-12-05T03:45:46;102605.56;;;6.15;73.78
71559;BME280;59382;43.852;25.952;2022-12-05T03:48:20;102586.53;;;6.08;73.57
71559;BME280;59382;43.852;25.952;2022-12-05T03:50:48;102595.41;;;6.08;73.89
71559;BME280;59382;43.852;25.952;2022-12-05T03:53:23;102581.13;;;5.98;73.59
71559;BME280;59382;43.852;25.952;2022-12-05T03:55:59;102595.84;;;6.04;73.96
71559;BME280;59382;43.852;25.952;2022-12-05T03:58:37;102594.66;;;5.97;74.18
71559;BME280;59382;43.852;25.952;2022-12-05T04:01:06;102601.59;;;5.99;74.40
71559;BME280;59382;43.852;25.952;2022-12-05T04:03:40;102586.75;;;5.95;74.28
71559;BME280;59382;43.852;25.952;2022-12-05T04:06:35;102602.03;;;6.04;74.51
71559;BME280;59382;43.852;25.952;2022-12-05T04:09:05;102596.94;;;6.01;74.33
71559;BME280;59382;43.852;25.952;2022-12-05T04:11:35;102604.56;;;6.06;74.02
71559;BME280;59382;43.852;25.952;2022-12-05T04:14:06;102607.38;;;6.04;74.02
71559;BME280;59382;43.852;25.952;2022-12-05T04:16:39;102599.63;;;6.01;73.84
71559;BME280;59382;43.852;25.952;2022-12-05T04:22:21;102598.66;;;6.03;73.67
71559;BME280;59382;43.852;25.952;2022-12-05T04:24:48;102601.47;;;6.01;74.10
71559;BME280;59382;43.852;25.952;2022-12-05T04:34:06;102616.16;;;6.07;73.99
71559;BME280;59382;43.852;25.952;2022-12-05T04:36:50;102602.56;;;5.98;73.99
71559;BME280;59382;43.852;25.952;2022-12-05T04:39:35;102608.38;;;6.03;74.17
71559;BME280;59382;43.852;25.952;2022-12-05T04:42:09;102559.16;;;5.74;74.20
71559;BME280;59382;43.852;25.952;2022-12-05T04:44:46;102599.88;;;5.98;73.62
71559;BME280;59382;43.852;25.952;2022-12-05T04:47:16;102602.03;;;6.04;73.77
71559;BME280;59382;43.852;25.952;2022-12-05T04:49:46;102576.31;;;5.92;73.98
71559;BME280;59382;43.852;25.952;2022-12-05T04:52:13;102609.38;;;6.03;73.89
71559;BME280;59382;43.852;25.952;2022-12-05T04:55:02;102599.75;;;5.90;73.77
71559;BME280;59382;43.852;25.952;2022-12-05T05:00:12;102623.31;;;5.96;74.21
71559;BME280;59382;43.852;25.952;2022-12-05T05:02:49;102612.47;;;5.98;74.23
71559;BME280;59382;43.852;25.952;2022-12-05T05:05:18;102623.75;;;6.01;73.87
71559;BME280;59382;43.852;25.952;2022-12-05T05:07:46;102605.97;;;6.00;74.25
71559;BME280;59382;43.852;25.952;2022-12-05T05:10:14;102615.84;;;6.00;73.67
71559;BME280;59382;43.852;25.952;2022-12-05T05:12:40;102600.00;;;5.87;73.71
71559;BME280;59382;43.852;25.952;2022-12-05T05:15:06;102616.09;;;5.97;73.56
71559;BME280;59382;43.852;25.952;2022-12-05T05:17:32;102616.91;;;5.88;73.89
71559;BME280;59382;43.852;25.952;2022-12-05T05:19:59;102613.97;;;5.91;74.26
71559;BME280;59382;43.852;25.952;2022-12-05T05:22:43;102600.84;;;5.88;73.64
71559;BME280;59382;43.852;25.952;2022-12-05T05:25:08;102617.09;;;5.96;73.71
71559;BME280;59382;43.852;25.952;2022-12-05T05:27:34;102608.19;;;5.86;74.14
71559;BME280;59382;43.852;25.952;2022-12-05T05:29:59;102609.28;;;5.83;73.88
71559;BME280;59382;43.852;25.952;2022-12-05T05:32:25;102616.78;;;5.89;74.12
71559;BME280;59382;43.852;25.952;2022-12-05T05:34:50;102601.47;;;5.80;74.52
71559;BME280;59382;43.852;25.952;2022-12-05T05:37:19;102602.25;;;5.82;74.03
71559;BME280;59382;43.852;25.952;2022-12-05T05:39:44;102633.84;;;5.88;74.66
71559;BME280;59382;43.852;25.952;2022-12-05T05:42:10;102615.09;;;5.88;73.88
71559;BME280;59382;43.852;25.952;2022-12-05T05:44:35;102613.69;;;5.84;74.08
71559;BME280;59382;43.852;25.952;2022-12-05T05:47:01;102606.72;;;5.82;74.19
71559;BME280;59382;43.852;25.952;2022-12-05T05:49:26;102612.94;;;5.82;74.11
71559;BME280;59382;43.852;25.952;2022-12-05T05:51:52;102601.09;;;5.85;74.33
71559;BME280;59382;43.852;25.952;2022-12-05T05:54:17;102611.56;;;5.88;73.92
71559;BME280;59382;43.852;25.952;2022-12-05T05:56:43;102603.91;;;5.83;74.45
71559;BME280;59382;43.852;25.952;2022-12-05T05:59:08;102616.09;;;5.87;73.98
71559;BME280;59382;43.852;25.952;2022-12-05T06:01:34;102606.06;;;5.89;74.12
71559;BME280;59382;43.852;25.952;2022-12-05T06:03:59;102586.66;;;5.76;73.73
71559;BME280;59382;43.852;25.952;2022-12-05T06:06:25;102579.91;;;5.72;73.88
71559;BME280;59382;43.852;25.952;2022-12-05T06:08:51;102607.31;;;5.85;74.06
71559;BME280;59382;43.852;25.952;2022-12-05T06:11:19;102589.47;;;5.75;74.17
71559;BME280;59382;43.852;25.952;2022-12-05T06:13:45;102587.25;;;5.80;73.88
71559;BME280;59382;43.852;25.952;2022-12-05T06:16:13;102584.97;;;5.75;73.86
71559;BME280;59382;43.852;25.952;2022-12-05T06:18:40;102583.25;;;5.74;74.17
71559;BME280;59382;43.852;25.952;2022-12-05T06:21:08;102603.66;;;5.86;73.79
71559;BME280;59382;43.852;25.952;2022-12-05T06:23:35;102597.47;;;5.86;74.45
71559;BME280;59382;43.852;25.952;2022-12-05T06:26:02;102622.59;;;5.94;74.13
71559;BME280;59382;43.852;25.952;2022-12-05T06:28:28;102629.38;;;5.98;74.17
71559;BME280;59382;43.852;25.952;2022-12-05T06:30:54;102617.56;;;6.01;74.15
71559;BME280;59382;43.852;25.952;2022-12-05T06:33:20;102612.47;;;5.98;74.05
71559;BME280;59382;43.852;25.952;2022-12-05T06:35:45;102622.06;;;6.00;73.91
71559;BME280;59382;43.852;25.952;2022-12-05T06:38:11;102625.72;;;5.99;73.80
71559;BME280;59382;43.852;25.952;2022-12-05T06:40:45;102625.47;;;6.03;73.77
71559;BME280;59382;43.852;25.952;2022-12-05T06:43:10;102635.31;;;6.02;73.59
71559;BME280;59382;43.852;25.952;2022-12-05T06:45:37;102629.38;;;5.98;73.63
71559;BME280;59382;43.852;25.952;2022-12-05T06:48:03;102642.94;;;6.07;74.26
71559;BME280;59382;43.852;25.952;2022-12-05T06:50:28;102637.31;;;6.10;73.99
71559;BME280;59382;43.852;25.952;2022-12-05T06:52:54;102618.38;;;6.01;74.04
71559;BME280;59382;43.852;25.952;2022-12-05T06:55:20;102619.22;;;6.02;73.48
71559;BME280;59382;43.852;25.952;2022-12-05T06:57:45;102630.09;;;6.10;73.37
71559;BME280;59382;43.852;25.952;2022-12-05T07:00:11;102635.06;;;6.15;73.74
71559;BME280;59382;43.852;25.952;2022-12-05T07:02:56;102633.38;;;6.14;73.00
71559;BME280;59382;43.852;25.952;2022-12-05T07:05:21;102631.38;;;6.06;73.73
71559;BME280;59382;43.852;25.952;2022-12-05T07:07:49;102640.97;;;6.08;73.66
71559;BME280;59382;43.852;25.952;2022-12-05T07:10:15;102632.50;;;6.03;73.87
71559;BME280;59382;43.852;25.952;2022-12-05T07:12:41;102641.25;;;6.06;73.41
71559;BME280;59382;43.852;25.952;2022-12-05T07:15:06;102659.63;;;6.20;73.07
71559;BME280;59382;43.852;25.952;2022-12-05T07:17:37;102645.50;;;6.18;73.46
71559;BME280;59382;43.852;25.952;2022-12-05T07:20:04;102637.31;;;6.10;73.18
71559;BME280;59382;43.852;25.952;2022-12-05T07:22:30;102645.50;;;6.08;73.76
71559;BME280;59382;43.852;25.952;2022-12-05T07:24:56;102644.47;;;5.99;73.14
71559;BME280;59382;43.852;25.952;2022-12-05T07:27:22;102658.22;;;6.16;73.71
71559;BME280;59382;43.852;25.952;2022-12-05T07:29:48;102661.84;;;6.15;73.22
71559;BME280;59382;43.852;25.952;2022-12-05T07:32:13;102649.72;;;6.11;73.07
71559;BME280;59382;43.852;25.952;2022-12-05T07:34:39;102667.34;;;6.13;73.43
71559;BME280;59382;43.852;25.952;2022-12-05T07:37:06;102662.28;;;6.10;73.63
71559;BME280;59382;43.852;25.952;2022-12-05T07:39:32;102632.78;;;6.00;73.73
71559;BME280;59382;43.852;25.952;2022-12-05T07:41:57;102654.53;;;6.17;73.45
71559;BME280;59382;43.852;25.952;2022-12-05T07:44:23;102655.00;;;6.22;73.15
71559;BME280;59382;43.852;25.952;2022-12-05T07:46:49;102659.34;;;6.23;73.20
71559;BME280;59382;43.852;25.952;2022-12-05T07:49:14;102662.19;;;6.21;73.40
71559;BME280;59382;43.852;25.952;2022-12-05T07:51:40;102666.13;;;6.27;72.94
71559;BME280;59382;43.852;25.952;2022-12-05T07:54:08;102680.41;;;6.27;73.20
71559;BME280;59382;43.852;25.952;2022-12-05T07:56:33;102678.56;;;6.28;73.36
71559;BME280;59382;43.852;25.952;2022-12-05T07:59:00;102666.41;;;6.24;73.44
71559;BME280;59382;43.852;25.952;2022-12-05T08:01:28;102671.22;;;6.30;73.23
71559;BME280;59382;43.852;25.952;2022-12-05T08:03:56;102688.03;;;6.32;73.26
71559;BME280;59382;43.852;25.952;2022-12-05T08:06:25;102674.91;;;6.29;73.42
71559;BME280;59382;43.852;25.952;2022-12-05T08:08:53;102680.00;;;6.32;73.27
71559;BME280;59382;43.852;25.952;2022-12-05T08:11:24;102681.41;;;6.36;73.13
71559;BME280;59382;43.852;25.952;2022-12-05T08:13:51;102695.00;;;6.44;73.12
71559;BME280;59382;43.852;25.952;2022-12-05T08:16:20;102671.25;;;6.39;72.80
71559;BME280;59382;43.852;25.952;2022-12-05T08:18:47;102674.22;;;6.36;72.76
71559;BME280;59382;43.852;25.952;2022-12-05T08:21:16;102681.13;;;6.39;72.96
71559;BME280;59382;43.852;25.952;2022-12-05T08:23:42;102688.78;;;6.43;73.07
71559;BME280;59382;43.852;25.952;2022-12-05T08:26:23;102685.53;;;6.40;72.95
71559;BME280;59382;43.852;25.952;2022-12-05T08:29:14;102677.50;;;6.40;73.00
71559;BME280;59382;43.852;25.952;2022-12-05T08:31:48;102680.59;;;6.45;73.05
71559;BME280;59382;43.852;25.952;2022-12-05T08:34:15;102683.13;;;6.46;73.11
71559;BME280;59382;43.852;25.952;2022-12-05T08:36:42;102674.25;;;6.46;73.38
71559;BME280;59382;43.852;25.952;2022-12-05T08:39:11;102683.16;;;6.56;73.19
71559;BME280;59382;43.852;25.952;2022-12-05T08:41:39;102686.81;;;6.55;72.95
71559;BME280;59382;43.852;25.952;2022-12-05T08:44:05;102676.41;;;6.52;73.26
71559;BME280;59382;43.852;25.952;2022-12-05T08:46:34;102682.03;;;6.58;73.30
71559;BME280;59382;43.852;25.952;2022-12-05T08:49:01;102685.44;;;6.60;73.00
71559;BME280;59382;43.852;25.952;2022-12-05T08:51:32;102679.50;;;6.57;73.14
71559;BME280;59382;43.852;25.952;2022-12-05T08:54:01;102670.16;;;6.61;73.63
71559;BME280;59382;43.852;25.952;2022-12-05T08:56:32;102678.38;;;6.69;72.97
71559;BME280;59382;43.852;25.952;2022-12-05T08:58:58;102675.56;;;6.70;73.39
71559;BME280;59382;43.852;25.952;2022-12-05T09:01:27;102678.97;;;6.72;73.03
71559;BME280;59382;43.852;25.952;2022-12-05T09:03:57;102669.63;;;6.67;73.12
71559;BME280;59382;43.852;25.952;2022-12-05T09:06:24;102657.63;;;6.61;73.07
71559;BME280;59382;43.852;25.952;2022-12-05T09:08:54;102660.59;;;6.68;72.77
71559;BME280;59382;43.852;25.952;2022-12-05T09:11:22;102649.72;;;6.60;72.53
71559;BME280;59382;43.852;25.952;2022-12-05T09:13:50;102665.97;;;6.68;73.07
71559;BME280;59382;43.852;25.952;2022-12-05T09:16:22;102658.47;;;6.62;73.07
71559;BME280;59382;43.852;25.952;2022-12-05T09:18:48;102634.03;;;6.46;73.30
71559;BME280;59382;43.852;25.952;2022-12-05T09:21:22;102638.25;;;6.58;72.90
71559;BME280;59382;43.852;25.952;2022-12-05T09:23:49;102643.94;;;6.64;72.97
71559;BME280;59382;43.852;25.952;2022-12-05T09:26:18;102600.69;;;6.39;73.04
71559;BME280;59382;43.852;25.952;2022-12-05T09:28:53;102601.13;;;6.44;73.08
71559;BME280;59382;43.852;25.952;2022-12-05T09:31:21;102621.59;;;6.64;73.25
71559;BME280;59382;43.852;25.952;2022-12-05T09:33:47;102629.81;;;6.72;73.09
71559;BME280;59382;43.852;25.952;2022-12-05T09:38:47;102612.03;;;6.71;72.96
71559;BME280;59382;43.852;25.952;2022-12-05T09:44:19;102616.84;;;6.77;72.65
71559;BME280;59382;43.852;25.952;2022-12-05T09:47:02;102599.88;;;6.67;72.86
71559;BME280;59382;43.852;25.952;2022-12-05T09:49:32;102601.03;;;6.74;72.88
71559;BME280;59382;43.852;25.952;2022-12-05T09:52:02;102606.66;;;6.71;72.75
71559;BME280;59382;43.852;25.952;2022-12-05T09:54:29;102594.50;;;6.67;72.82
71559;BME280;59382;43.852;25.952;2022-12-05T09:56:58;102582.38;;;6.63;73.13
71559;BME280;59382;43.852;25.952;2022-12-05T09:59:28;102579.25;;;6.58;73.23
71559;BME280;59382;43.852;25.952;2022-12-05T10:01:59;102575.31;;;6.62;73.21
71559;BME280;59382;43.852;25.952;2022-12-05T10:04:59;102581.53;;;6.72;73.43
71559;BME280;59382;43.852;25.952;2022-12-05T10:10:06;102585.75;;;6.74;73.13
71559;BME280;59382;43.852;25.952;2022-12-05T10:15:46;102586.59;;;6.65;73.04
71559;BME280;59382;43.852;25.952;2022-12-05T10:18:32;102585.22;;;6.71;73.31
71559;BME280;59382;43.852;25.952;2022-12-05T10:26:31;102576.75;;;6.75;73.30
71559;BME280;59382;43.852;25.952;2022-12-05T10:29:25;102578.28;;;6.78;73.33
71559;BME280;59382;43.852;25.952;2022-12-05T10:32:17;102566.84;;;6.76;73.02
71559;BME280;59382;43.852;25.952;2022-12-05T10:34:45;102574.59;;;6.79;73.45
71559;BME280;59382;43.852;25.952;2022-12-05T10:37:29;102556.66;;;6.70;73.03
71559;BME280;59382;43.852;25.952;2022-12-05T10:39:58;102525.59;;;6.58;73.08
71559;BME280;59382;43.852;25.952;2022-12-05T10:42:28;102543.69;;;6.75;73.26
71559;BME280;59382;43.852;25.952;2022-12-05T10:45:01;102546.78;;;6.80;73.28
71559;BME280;59382;43.852;25.952;2022-12-05T10:47:30;102538.19;;;6.76;73.15
71559;BME280;59382;43.852;25.952;2022-12-05T10:50:03;102545.50;;;6.84;73.65
71559;BME280;59382;43.852;25.952;2022-12-05T10:52:29;102533.78;;;6.85;73.28
71559;BME280;59382;43.852;25.952;2022-12-05T10:55:02;102529.13;;;6.87;73.32
71559;BME280;59382;43.852;25.952;2022-12-05T10:57:28;102496.53;;;6.72;73.49
71559;BME280;59382;43.852;25.952;2022-12-05T10:59:55;102515.41;;;6.90;73.11
71559;BME280;59382;43.852;25.952;2022-12-05T11:02:30;102507.50;;;6.88;73.03
71559;BME280;59382;43.852;25.952;2022-12-05T11:04:56;102518.53;;;6.85;73.27
71559;BME280;59382;43.852;25.952;2022-12-05T11:07:32;102512.19;;;6.77;73.32
71559;BME280;59382;43.852;25.952;2022-12-05T11:12:56;102521.38;;;6.84;73.24
71559;BME280;59382;43.852;25.952;2022-12-05T11:15:27;102520.22;;;6.86;73.49
71559;BME280;59382;43.852;25.952;2022-12-05T11:18:16;102508.81;;;6.84;73.41
71559;BME280;59382;43.852;25.952;2022-12-05T11:20:44;102509.50;;;6.86;73.40
71559;BME280;59382;43.852;25.952;2022-12-05T11:23:28;102498.22;;;6.83;73.39
71559;BME280;59382;43.852;25.952;2022-12-05T11:29:33;102495.34;;;6.94;73.42
71559;BME280;59382;43.852;25.952;2022-12-05T11:31:59;102511.16;;;6.97;73.29
71559;BME280;59382;43.852;25.952;2022-12-05T11:34:41;102494.25;;;6.87;73.49
71559;BME280;59382;43.852;25.952;2022-12-05T11:37:18;102483.78;;;6.84;73.64
71559;BME280;59382;43.852;25.952;2022-12-05T11:39:44;102490.53;;;6.97;73.55
71559;BME280;59382;43.852;25.952;2022-12-05T11:53:00;102489.25;;;7.11;73.63
71559;BME280;59382;43.852;25.952;2022-12-05T11:55:33;102484.84;;;7.10;73.84
71559;BME280;59382;43.852;25.952;2022-12-05T12:06:32;102457.47;;;7.06;73.69
71559;BME280;59382;43.852;25.952;2022-12-05T12:12:04;102473.00;;;7.12;73.71
71559;BME280;59382;43.852;25.952;2022-12-05T12:34:48;102447.88;;;7.31;73.71
71559;BME280;59382;43.852;25.952;2022-12-05T12:37:46;102441.84;;;7.29;73.90
71559;BME280;59382;43.852;25.952;2022-12-05T12:40:54;102444.53;;;7.29;73.76
71559;BME280;59382;43.852;25.952;2022-12-05T12:43:38;102444.53;;;7.29;73.57
71559;BME280;59382;43.852;25.952;2022-12-05T12:46:32;102441.97;;;7.27;73.94
71559;BME280;59382;43.852;25.952;2022-12-05T12:49:09;102447.22;;;7.29;73.92
71559;BME280;59382;43.852;25.952;2022-12-05T12:51:51;102447.22;;;7.29;74.06
71559;BME280;59382;43.852;25.952;2022-12-05T13:02:32;102434.16;;;7.34;74.11
71559;BME280;59382;43.852;25.952;2022-12-05T13:05:20;102421.19;;;7.29;73.92
71559;BME280;59382;43.852;25.952;2022-12-05T13:08:03;102428.25;;;7.30;73.82
71559;BME280;59382;43.852;25.952;2022-12-05T13:10:43;102407.13;;;7.18;73.84
71559;BME280;59382;43.852;25.952;2022-12-05T13:13:21;102418.63;;;7.28;73.94
71559;BME280;59382;43.852;25.952;2022-12-05T13:16:09;102432.47;;;7.33;74.02
71559;BME280;59382;43.852;25.952;2022-12-05T13:18:37;102429.66;;;7.34;74.15
71559;BME280;59382;43.852;25.952;2022-12-05T13:21:06;102434.16;;;7.34;73.79
71559;BME280;59382;43.852;25.952;2022-12-05T13:23:40;102425.44;;;7.32;73.93
71559;BME280;59382;43.852;25.952;2022-12-05T13:26:09;102429.66;;;7.34;74.35
71559;BME280;59382;43.852;25.952;2022-12-05T13:28:48;102404.53;;;7.26;74.23
71559;BME280;59382;43.852;25.952;2022-12-05T13:31:17;102419.47;;;7.38;74.13
71559;BME280;59382;43.852;25.952;2022-12-05T13:33:48;102368.19;;;7.04;73.60
71559;BME280;59382;43.852;25.952;2022-12-05T13:36:20;102422.16;;;7.38;74.07
71559;BME280;59382;43.852;25.952;2022-12-05T13:39:17;102411.00;;;7.33;74.20
71559;BME280;59382;43.852;25.952;2022-12-05T13:42:02;102403.94;;;7.32;74.29
71559;BME280;59382;43.852;25.952;2022-12-05T13:50:21;102404.25;;;7.29;74.02
71559;BME280;59382;43.852;25.952;2022-12-05T13:52:57;102370.72;;;7.06;74.27
71559;BME280;59382;43.852;25.952;2022-12-05T13:55:39;102399.06;;;7.18;74.17
71559;BME280;59382;43.852;25.952;2022-12-05T14:03:57;102410.59;;;7.28;74.36
71559;BME280;59382;43.852;25.952;2022-12-05T14:09:28;102402.22;;;7.31;74.68
71559;BME280;59382;43.852;25.952;2022-12-05T14:17:28;102382.47;;;7.32;74.70
71559;BME280;59382;43.852;25.952;2022-12-05T14:22:44;102396.69;;;7.42;74.88
71559;BME280;59382;43.852;25.952;2022-12-05T14:31:20;102404.13;;;7.48;74.39
71559;BME280;59382;43.852;25.952;2022-12-05T14:36:54;102415.41;;;7.51;74.66
71559;BME280;59382;43.852;25.952;2022-12-05T14:39:21;102399.44;;;7.50;74.49
71559;BME280;59382;43.852;25.952;2022-12-05T14:41:58;102403.53;;;7.54;74.58
71559;BME280;59382;43.852;25.952;2022-12-05T14:44:35;102399.59;;;7.48;74.42
71559;BME280;59382;43.852;25.952;2022-12-05T14:47:20;102399.59;;;7.48;74.52
71559;BME280;59382;43.852;25.952;2022-12-05T14:49:59;102422.72;;;7.59;74.46
71559;BME280;59382;43.852;25.952;2022-12-05T14:52:32;102407.19;;;7.53;74.37
71559;BME280;59382;43.852;25.952;2022-12-05T14:55:11;102399.34;;;7.42;74.46
71559;BME280;59382;43.852;25.952;2022-12-05T14:57:52;102405.28;;;7.45;74.67
71559;BME280;59382;43.852;25.952;2022-12-05T15:00:21;102413.88;;;7.49;74.71
71559;BME280;59382;43.852;25.952;2022-12-05T15:02:47;102411.19;;;7.49;74.85
71559;BME280;59382;43.852;25.952;2022-12-05T15:05:29;102394.59;;;7.36;75.06
71559;BME280;59382;43.852;25.952;2022-12-05T15:07:57;102413.88;;;7.49;75.33
71559;BME280;59382;43.852;25.952;2022-12-05T15:10:34;102412.84;;;7.50;74.93
71559;BME280;59382;43.852;25.952;2022-12-05T15:13:09;102360.47;;;7.19;74.98
71559;BME280;59382;43.852;25.952;2022-12-05T15:15:43;102414.56;;;7.51;75.21
71559;BME280;59382;43.852;25.952;2022-12-05T15:18:23;102399.59;;;7.48;74.90
71559;BME280;59382;43.852;25.952;2022-12-05T15:21:20;102399.59;;;7.48;74.86
71559;BME280;59382;43.852;25.952;2022-12-05T15:23:44;102408.91;;;7.54;74.99
71559;BME280;59382;43.852;25.952;2022-12-05T15:26:56;102405.34;;;7.53;74.94
71559;BME280;59382;43.852;25.952;2022-12-05T15:29:26;102409.56;;;7.56;74.79
71559;BME280;59382;43.852;25.952;2022-12-05T15:31:59;102396.44;;;7.53;75.03
71559;BME280;59382;43.852;25.952;2022-12-05T15:37:23;102406.59;;;7.59;75.06
71559;BME280;59382;43.852;25.952;2022-12-05T15:39:59;102397.56;;;7.60;74.68
71559;BME280;59382;43.852;25.952;2022-12-05T15:42:55;102400.91;;;7.62;74.86
71559;BME280;59382;43.852;25.952;2022-12-05T15:45:23;102405.31;;;7.63;74.88
71559;BME280;59382;43.852;25.952;2022-12-05T15:47:53;102397.56;;;7.60;74.68
71559;BME280;59382;43.852;25.952;2022-12-05T15:50:35;102393.47;;;7.56;74.69